Time;durP1;ratioP1;P1;durP2;ratioP2;P2;SDS_P1;SDS_P2;PMS_P1;PMS_P2;Temp;Humidity;BMP_temperature;BMP_pressure;BME280_temperature;BME280_humidity;BME280_pressure;Samples;Min_cycle;Max_cycle;Signal;HPM_P1;HPM_P2
2023/03/08 00:00:26;;;;;;;9.90;6.15;;;-1.50;99.90;;;;;;4987990;28;20130;-82
2023/03/08 00:02:52;;;;;;;11.65;6.40;;;-1.50;99.90;;;;;;5002818;28;20120;-82
2023/03/08 00:05:18;;;;;;;8.43;5.88;;;-1.50;99.90;;;;;;5000167;28;20138;-82
2023/03/08 00:07:44;;;;;;;8.70;5.80;;;-0.70;99.90;;;;;;4972405;28;20038;-82
2023/03/08 00:10:10;;;;;;;9.35;5.80;;;-1.50;99.90;;;;;;4987361;28;20050;-83
2023/03/08 00:12:36;;;;;;;8.82;5.43;;;-1.50;99.90;;;;;;4999625;28;20064;-83
2023/03/08 00:15:02;;;;;;;9.38;5.38;;;-1.50;99.90;;;;;;4989379;28;20037;-83
2023/03/08 00:17:27;;;;;;;10.25;5.68;;;-1.50;99.90;;;;;;4977967;28;20495;-83
2023/03/08 00:19:53;;;;;;;7.25;5.28;;;-0.40;99.90;;;;;;4968496;28;20034;-83
2023/03/08 00:22:19;;;;;;;8.10;5.25;;;-0.90;99.90;;;;;;4965077;28;20042;-83
2023/03/08 00:24:44;;;;;;;8.68;5.22;;;-1.50;99.90;;;;;;5001967;28;20046;-83
2023/03/08 00:27:10;;;;;;;7.60;5.28;;;-1.50;99.90;;;;;;5003219;28;20034;-82
2023/03/08 00:29:36;;;;;;;8.50;5.78;;;-1.50;99.90;;;;;;4970925;28;20045;-83
2023/03/08 00:32:01;;;;;;;10.52;5.18;;;-1.50;99.90;;;;;;4982455;28;20427;-83
2023/03/08 00:34:27;;;;;;;9.88;6.07;;;-1.50;99.90;;;;;;5000835;28;20491;-83
2023/03/08 00:36:53;;;;;;;10.05;5.82;;;-1.50;99.90;;;;;;5019259;28;20038;-83
2023/03/08 00:39:19;;;;;;;8.75;5.25;;;-1.50;99.90;;;;;;4982667;28;20121;-83
2023/03/08 00:41:45;;;;;;;10.05;5.63;;;-1.50;99.90;;;;;;4991145;28;20036;-83
2023/03/08 00:44:10;;;;;;;9.98;5.75;;;-1.50;99.90;;;;;;4987282;28;20038;-83
2023/03/08 00:46:36;;;;;;;9.30;6.15;;;-1.50;99.90;;;;;;5000817;28;20123;-83
2023/03/08 00:49:03;;;;;;;11.45;5.82;;;-1.20;99.90;;;;;;4985839;28;20052;-83
2023/03/08 00:51:28;;;;;;;8.35;5.85;;;-1.50;99.90;;;;;;4983333;28;20045;-84
2023/03/08 00:53:54;;;;;;;10.57;6.32;;;-1.50;99.90;;;;;;4985040;28;20068;-83
2023/03/08 00:56:20;;;;;;;10.30;6.10;;;-1.50;99.90;;;;;;4986559;28;20030;-83
2023/03/08 00:58:46;;;;;;;11.07;6.32;;;-0.70;99.90;;;;;;4999349;28;20104;-83
2023/03/08 01:01:17;;;;;;;11.18;6.00;;;-1.60;99.90;;;;;;4961700;28;20036;-83
2023/03/08 01:03:43;;;;;;;9.67;6.17;;;-1.60;99.90;;;;;;5001934;28;20064;-83
2023/03/08 01:06:12;;;;;;;9.57;6.57;;;-0.50;99.90;;;;;;5017625;28;20041;-84
2023/03/08 01:08:39;;;;;;;16.23;6.93;;;-1.60;99.90;;;;;;5012797;28;20111;-83
2023/03/08 01:11:05;;;;;;;10.90;7.38;;;-1.60;99.90;;;;;;4983135;28;20052;-83
2023/03/08 01:13:33;;;;;;;13.07;7.57;;;-1.20;99.90;;;;;;4987413;28;20046;-84
2023/03/08 01:16:00;;;;;;;9.15;6.45;;;-1.60;99.90;;;;;;5002114;28;20483;-84
2023/03/08 01:18:26;;;;;;;12.63;7.65;;;-1.70;99.90;;;;;;5000879;28;20495;-83
2023/03/08 01:21:03;;;;;;;10.90;7.22;;;-1.70;99.90;;;;;;4987437;28;20080;-83
2023/03/08 01:23:29;;;;;;;13.40;7.35;;;-1.70;99.90;;;;;;5013328;28;20131;-84
2023/03/08 01:26:07;;;;;;;11.75;7.75;;;-1.70;99.90;;;;;;4973669;28;20081;-84
2023/03/08 01:28:33;;;;;;;12.75;7.68;;;-1.70;99.90;;;;;;5005303;28;20124;-83
2023/03/08 01:31:07;;;;;;;13.13;8.05;;;-1.70;99.90;;;;;;4981462;28;20056;-83
2023/03/08 01:33:33;;;;;;;13.20;8.48;;;-1.70;99.90;;;;;;4987283;28;20042;-83
2023/03/08 01:36:01;;;;;;;10.75;7.65;;;-1.70;99.90;;;;;;5005104;28;20200;-83
2023/03/08 01:38:27;;;;;;;10.95;7.50;;;-1.70;99.90;;;;;;4999395;28;20053;-83
2023/03/08 01:41:01;;;;;;;13.25;8.05;;;-1.70;99.90;;;;;;4990591;28;20046;-83
2023/03/08 01:43:30;;;;;;;15.77;7.68;;;-0.80;99.90;;;;;;5002709;28;20049;-83
2023/03/08 01:46:18;;;;;;;12.88;7.72;;;-1.40;99.90;;;;;;4998611;28;20042;-83
2023/03/08 01:48:49;;;;;;;11.82;8.02;;;-1.80;99.90;;;;;;5016094;28;20526;-83
2023/03/08 01:51:30;;;;;;;11.30;8.27;;;-1.80;99.90;;;;;;4999454;28;20045;-83
2023/03/08 01:53:58;;;;;;;16.27;8.82;;;-1.80;99.90;;;;;;5000033;28;20038;-83
2023/03/08 01:56:25;;;;;;;13.88;8.48;;;-1.80;99.90;;;;;;4982707;28;20506;-83
2023/03/08 01:58:51;;;;;;;14.35;8.50;;;-1.70;99.90;;;;;;4987175;28;20053;-82
2023/03/08 02:01:19;;;;;;;15.05;7.60;;;-1.70;99.90;;;;;;4991984;28;20053;-83
2023/03/08 02:03:46;;;;;;;15.50;8.73;;;-1.70;99.90;;;;;;4992392;28;20052;-84
2023/03/08 02:06:12;;;;;;;16.30;8.95;;;-1.60;99.90;;;;;;5002229;28;20046;-83
2023/03/08 02:08:38;;;;;;;15.73;9.55;;;-1.70;99.90;;;;;;4992757;28;20073;-83
2023/03/08 02:11:04;;;;;;;13.73;9.27;;;-0.70;99.90;;;;;;4991342;28;20526;-83
2023/03/08 02:13:30;;;;;;;17.55;9.23;;;-1.70;99.90;;;;;;4964288;28;20038;-83
2023/03/08 02:15:59;;;;;;;17.42;9.90;;;-1.70;99.90;;;;;;4961247;28;20042;-82
2023/03/08 02:18:24;;;;;;;15.25;10.45;;;-1.70;99.90;;;;;;5011825;28;20061;-83
2023/03/08 02:20:50;;;;;;;16.33;10.73;;;-1.70;99.90;;;;;;4977125;28;20389;-83
2023/03/08 02:23:21;;;;;;;18.35;10.93;;;-1.70;99.90;;;;;;4987427;28;20034;-83
2023/03/08 02:25:56;;;;;;;20.10;10.65;;;-1.70;99.90;;;;;;4989302;28;20030;-83
2023/03/08 02:28:24;;;;;;;18.90;11.60;;;-1.70;99.90;;;;;;5002355;28;20052;-83
2023/03/08 02:30:50;;;;;;;17.20;11.80;;;-1.70;99.90;;;;;;5001979;28;20089;-82
2023/03/08 02:33:16;;;;;;;16.40;10.90;;;-1.70;99.90;;;;;;5005669;28;20060;-82
2023/03/08 02:35:43;;;;;;;22.75;11.18;;;-1.70;99.90;;;;;;4987175;28;20081;-82
2023/03/08 02:38:13;;;;;;;20.75;11.57;;;-1.70;99.90;;;;;;5004017;28;20479;-82
2023/03/08 02:40:39;;;;;;;16.48;11.32;;;-1.70;99.90;;;;;;5009223;28;20125;-82
2023/03/08 02:43:06;;;;;;;18.88;12.00;;;-1.70;99.90;;;;;;5010662;28;20084;-82
2023/03/08 02:45:32;;;;;;;19.23;12.45;;;-1.70;99.90;;;;;;5002688;28;20026;-82
2023/03/08 02:47:59;;;;;;;18.92;12.95;;;-1.40;99.90;;;;;;4987852;28;20050;-82
2023/03/08 02:50:25;;;;;;;20.02;13.43;;;-1.70;99.90;;;;;;4991487;28;20034;-82
2023/03/08 02:52:51;;;;;;;17.73;12.68;;;-1.70;99.90;;;;;;4986221;28;20092;-81
2023/03/08 02:55:16;;;;;;;17.08;12.27;;;-1.70;99.90;;;;;;5000644;28;20077;-81
2023/03/08 02:57:43;;;;;;;18.13;11.82;;;-1.70;99.90;;;;;;4988272;28;20104;-82
2023/03/08 03:00:10;;;;;;;20.58;12.32;;;-1.50;99.90;;;;;;5004176;28;20034;-81
2023/03/08 03:02:35;;;;;;;18.00;12.52;;;-1.80;99.90;;;;;;4990085;28;20041;-81
2023/03/08 03:05:09;;;;;;;18.58;12.35;;;-1.80;99.90;;;;;;4988903;28;20046;-81
2023/03/08 03:07:36;;;;;;;23.25;12.68;;;-1.80;99.90;;;;;;5017569;28;20033;-81
2023/03/08 03:10:03;;;;;;;19.73;13.30;;;-1.80;99.90;;;;;;5003536;28;20093;-81
2023/03/08 03:12:29;;;;;;;20.88;13.05;;;-1.80;99.90;;;;;;4987371;28;20042;-81
2023/03/08 03:14:55;;;;;;;21.48;14.05;;;-1.80;99.90;;;;;;4998782;28;20089;-81
2023/03/08 03:17:21;;;;;;;21.58;13.85;;;-1.80;99.90;;;;;;4978864;28;20033;-82
2023/03/08 03:19:46;;;;;;;19.67;13.40;;;-0.90;99.90;;;;;;4973819;28;20040;-81
2023/03/08 03:22:12;;;;;;;23.08;14.95;;;-1.80;99.90;;;;;;4982573;28;20510;-81
2023/03/08 03:24:38;;;;;;;24.60;14.25;;;-1.80;99.90;;;;;;5000628;28;20042;-81
2023/03/08 03:27:04;;;;;;;26.05;14.32;;;-1.80;99.90;;;;;;5005371;28;20057;-81
2023/03/08 03:29:29;;;;;;;26.23;16.15;;;-1.80;99.90;;;;;;5002913;28;20044;-81
2023/03/08 03:31:55;;;;;;;25.55;14.93;;;-1.80;99.90;;;;;;5001066;28;20046;-81
2023/03/08 03:34:21;;;;;;;24.58;15.25;;;-1.90;99.90;;;;;;4988011;28;20045;-81
2023/03/08 03:36:47;;;;;;;22.35;15.60;;;-1.90;99.90;;;;;;5001715;28;20045;-81
2023/03/08 03:39:12;;;;;;;27.63;15.95;;;-1.90;99.90;;;;;;4988518;28;20037;-81
2023/03/08 03:41:38;;;;;;;20.65;14.45;;;-1.90;99.90;;;;;;5017532;28;20057;-81
2023/03/08 03:44:04;;;;;;;22.45;14.57;;;-1.90;99.90;;;;;;4984347;28;20149;-81
2023/03/08 03:46:29;;;;;;;24.83;16.85;;;-1.90;99.90;;;;;;4973197;28;20044;-81
2023/03/08 03:48:55;;;;;;;25.08;15.73;;;-2.00;99.90;;;;;;4999939;28;20041;-81
2023/03/08 03:51:22;;;;;;;25.85;16.05;;;-2.00;99.90;;;;;;4991609;28;20108;-81
2023/03/08 03:53:48;;;;;;;26.33;15.10;;;-2.00;99.90;;;;;;4987771;28;20034;-81
2023/03/08 03:56:14;;;;;;;29.00;16.48;;;-2.00;99.90;;;;;;4972006;28;20041;-81
2023/03/08 03:58:40;;;;;;;22.38;15.32;;;-2.00;99.90;;;;;;4987816;28;20514;-81
2023/03/08 04:01:13;;;;;;;26.33;16.35;;;-2.00;99.90;;;;;;4996488;28;20049;-81
2023/03/08 04:03:38;;;;;;;23.77;16.02;;;-2.00;99.90;;;;;;4982120;28;20088;-81
2023/03/08 04:06:10;;;;;;;23.42;16.50;;;-2.10;99.90;;;;;;5002675;28;20089;-80
2023/03/08 04:08:41;;;;;;;27.85;15.85;;;-2.10;99.90;;;;;;4982512;28;20160;-81
2023/03/08 04:11:12;;;;;;;24.35;17.23;;;-2.10;99.90;;;;;;4982961;28;20667;-81
2023/03/08 04:13:38;;;;;;;27.73;17.00;;;-2.10;99.90;;;;;;4977259;28;20045;-81
2023/03/08 04:16:20;;;;;;;26.75;17.33;;;-2.10;99.90;;;;;;4988663;28;20458;-81
2023/03/08 04:18:46;;;;;;;26.42;15.77;;;-2.20;99.90;;;;;;5001166;28;20098;-81
2023/03/08 04:21:12;;;;;;;27.58;16.23;;;-2.20;99.90;;;;;;4998492;28;20041;-81
2023/03/08 04:23:38;;;;;;;29.23;17.33;;;-2.20;99.90;;;;;;5001965;28;20439;-81
2023/03/08 04:26:05;;;;;;;26.00;18.17;;;-2.20;99.90;;;;;;4982542;28;20091;-81
2023/03/08 04:28:32;;;;;;;25.65;16.67;;;-2.20;99.90;;;;;;5015388;28;20144;-81
2023/03/08 04:30:59;;;;;;;24.85;16.75;;;-2.20;99.90;;;;;;4988783;28;20124;-81
2023/03/08 04:33:25;;;;;;;25.88;16.80;;;-2.20;99.90;;;;;;4986380;28;20103;-81
2023/03/08 04:35:51;;;;;;;28.25;17.10;;;-2.20;99.90;;;;;;4998163;28;20061;-81
2023/03/08 04:38:17;;;;;;;29.35;18.08;;;-2.20;99.90;;;;;;4980687;28;20030;-81
2023/03/08 04:41:04;;;;;;;26.67;17.60;;;-2.20;99.90;;;;;;4971078;28;20049;-81
2023/03/08 04:43:31;;;;;;;25.90;17.00;;;-2.20;99.90;;;;;;4972651;28;20062;-81
2023/03/08 04:45:58;;;;;;;23.98;16.67;;;-2.20;99.90;;;;;;4998464;28;20032;-81
2023/03/08 04:48:23;;;;;;;27.77;16.98;;;-2.20;99.90;;;;;;5006279;28;20046;-81
2023/03/08 04:50:54;;;;;;;22.67;16.08;;;-2.20;99.90;;;;;;5003260;28;20639;-81
2023/03/08 04:53:20;;;;;;;23.33;16.10;;;-2.20;99.90;;;;;;5003042;28;20058;-81
2023/03/08 04:55:46;;;;;;;26.38;16.08;;;-2.20;99.90;;;;;;5000693;28;20061;-81
2023/03/08 04:58:12;;;;;;;22.25;15.93;;;-2.20;99.90;;;;;;5002149;28;20070;-80
2023/03/08 05:00:37;;;;;;;25.10;16.08;;;-2.20;99.90;;;;;;4972357;28;20038;-81
2023/03/08 05:03:03;;;;;;;25.23;14.95;;;-1.60;99.90;;;;;;5003641;28;20137;-81
2023/03/08 05:05:29;;;;;;;23.20;15.07;;;-2.20;99.90;;;;;;4999519;28;20034;-81
2023/03/08 05:07:54;;;;;;;22.45;15.40;;;-2.30;99.90;;;;;;4981058;28;20050;-81
2023/03/08 05:10:20;;;;;;;24.67;16.05;;;-2.30;99.90;;;;;;4962878;28;20439;-81
2023/03/08 05:12:46;;;;;;;26.05;15.82;;;-2.30;99.90;;;;;;4967738;28;20038;-81
2023/03/08 05:15:11;;;;;;;23.35;15.25;;;-2.30;99.90;;;;;;4987168;28;20042;-81
2023/03/08 05:17:37;;;;;;;22.27;15.85;;;-2.40;99.90;;;;;;4972343;28;20037;-81
2023/03/08 05:20:03;;;;;;;26.35;15.80;;;-2.40;99.90;;;;;;4965257;28;20096;-81
2023/03/08 05:22:29;;;;;;;25.00;16.63;;;-2.40;99.90;;;;;;4961940;28;20450;-81
2023/03/08 05:24:54;;;;;;;19.80;13.73;;;-2.40;99.90;;;;;;4956747;28;20042;-81
2023/03/08 05:27:20;;;;;;;22.50;14.95;;;-2.30;99.90;;;;;;4996682;28;20898;-81
2023/03/08 05:29:46;;;;;;;26.40;14.88;;;-2.00;99.90;;;;;;4959606;28;20045;-81
2023/03/08 05:32:12;;;;;;;20.27;14.02;;;-2.40;99.90;;;;;;4989344;28;20538;-81
2023/03/08 05:34:38;;;;;;;21.60;14.43;;;-2.40;99.90;;;;;;5000285;28;20495;-81
2023/03/08 05:37:03;;;;;;;23.30;15.18;;;-2.40;99.90;;;;;;5001665;28;20048;-81
2023/03/08 05:39:29;;;;;;;21.50;15.27;;;-2.40;99.90;;;;;;5000128;28;20156;-80
2023/03/08 05:41:55;;;;;;;18.95;15.10;;;-2.40;99.90;;;;;;4971260;28;20031;-81
2023/03/08 05:44:21;;;;;;;24.52;16.48;;;-2.40;99.90;;;;;;5006133;28;20046;-80
2023/03/08 05:46:50;;;;;;;21.50;15.52;;;-2.40;99.90;;;;;;4999474;28;20034;-80
2023/03/08 05:49:16;;;;;;;22.25;16.15;;;-2.30;99.90;;;;;;5002732;28;20046;-81
2023/03/08 05:51:42;;;;;;;24.55;16.77;;;-2.40;99.90;;;;;;4984020;28;20120;-80
2023/03/08 05:54:07;;;;;;;21.58;15.30;;;-2.40;99.90;;;;;;5003785;28;20093;-80
2023/03/08 05:56:33;;;;;;;25.33;16.20;;;-2.40;99.90;;;;;;4999729;28;20034;-80
2023/03/08 05:58:59;;;;;;;24.98;16.27;;;-2.40;99.90;;;;;;4975788;28;20038;-80
2023/03/08 06:01:26;;;;;;;23.10;17.23;;;-2.40;99.90;;;;;;4988475;28;20064;-80
2023/03/08 06:03:54;;;;;;;23.45;16.73;;;-2.40;99.90;;;;;;5006202;28;20146;-80
2023/03/08 06:06:22;;;;;;;25.75;17.58;;;-2.40;99.90;;;;;;5003756;28;20101;-80
2023/03/08 06:08:48;;;;;;;20.00;15.07;;;-2.40;99.90;;;;;;4983194;28;20057;-80
2023/03/08 06:11:15;;;;;;;25.02;16.17;;;-2.40;99.90;;;;;;5016618;28;20038;-81
2023/03/08 06:13:41;;;;;;;20.55;15.35;;;-2.40;99.90;;;;;;5001561;28;20132;-80
2023/03/08 06:16:08;;;;;;;23.40;16.17;;;-2.50;99.90;;;;;;4986475;28;20089;-81
2023/03/08 06:18:39;;;;;;;23.10;15.27;;;-2.50;99.90;;;;;;5007303;28;20589;-80
2023/03/08 06:21:07;;;;;;;24.52;15.57;;;-2.50;99.90;;;;;;5019073;28;20045;-80
2023/03/08 06:23:34;;;;;;;19.83;13.70;;;-2.50;99.90;;;;;;4991306;28;20038;-81
2023/03/08 06:26:00;;;;;;;24.67;14.80;;;-2.50;99.90;;;;;;5003692;28;20480;-81
2023/03/08 06:28:27;;;;;;;26.20;15.25;;;-1.70;99.90;;;;;;5015264;28;20048;-80
2023/03/08 06:30:53;;;;;;;24.35;15.30;;;-2.50;99.90;;;;;;5003841;28;20153;-80
2023/03/08 06:33:21;;;;;;;21.85;15.63;;;-2.50;99.90;;;;;;4991303;28;20065;-81
2023/03/08 06:35:59;;;;;;;22.80;14.13;;;-2.50;99.90;;;;;;4972698;28;20040;-81
2023/03/08 06:38:25;;;;;;;19.80;14.07;;;-2.40;99.90;;;;;;5000959;28;20037;-81
2023/03/08 06:40:51;;;;;;;19.73;14.63;;;-2.50;99.90;;;;;;4987163;28;20065;-81
2023/03/08 06:43:17;;;;;;;22.77;15.48;;;-3.30;99.90;;;;;;4994034;28;20084;-80
2023/03/08 06:45:43;;;;;;;23.23;14.40;;;-2.50;99.90;;;;;;4999728;28;20029;-80
2023/03/08 06:48:08;;;;;;;24.65;15.88;;;-2.50;99.90;;;;;;4988181;28;20560;-81
2023/03/08 06:50:34;;;;;;;23.67;15.63;;;-2.50;99.90;;;;;;5004143;28;20030;-80
2023/03/08 06:53:00;;;;;;;21.67;15.27;;;-2.50;99.90;;;;;;4998075;28;20034;-80
2023/03/08 06:55:26;;;;;;;24.40;16.25;;;-2.50;99.90;;;;;;5004819;28;20056;-79
2023/03/08 06:57:54;;;;;;;22.10;14.77;;;-2.60;99.90;;;;;;4969105;28;20511;-80
2023/03/08 07:00:20;;;;;;;22.95;16.17;;;-2.60;99.90;;;;;;5005122;28;20100;-80
2023/03/08 07:02:47;;;;;;;24.20;15.32;;;-2.50;99.90;;;;;;4989558;28;20027;-79
2023/03/08 07:05:14;;;;;;;27.83;18.17;;;-2.40;99.90;;;;;;4984304;28;20050;-81
2023/03/08 07:07:41;;;;;;;25.35;18.33;;;-2.50;99.90;;;;;;4970408;28;20093;-79
2023/03/08 07:10:09;;;;;;;21.98;15.70;;;-2.40;99.90;;;;;;5019335;28;20046;-80
2023/03/08 07:12:39;;;;;;;23.95;17.48;;;-2.30;99.90;;;;;;5004665;28;20045;-81
2023/03/08 07:15:06;;;;;;;34.75;20.40;;;-2.30;99.90;;;;;;5003087;28;20104;-80
2023/03/08 07:17:34;;;;;;;28.27;19.38;;;-3.00;99.90;;;;;;4999948;28;20061;-80
2023/03/08 07:20:00;;;;;;;38.50;21.08;;;-2.10;99.90;;;;;;5004633;28;20041;-80
2023/03/08 07:22:26;;;;;;;28.40;20.15;;;-1.60;99.90;;;;;;5004394;28;20026;-80
2023/03/08 07:24:52;;;;;;;28.58;20.30;;;-1.60;99.90;;;;;;4989552;28;20037;-80
2023/03/08 07:27:17;;;;;;;31.95;20.38;;;-1.90;99.90;;;;;;4989853;28;20042;-81
2023/03/08 07:29:43;;;;;;;33.65;20.88;;;-1.80;99.90;;;;;;5014727;28;20048;-82
2023/03/08 07:32:09;;;;;;;34.33;21.35;;;-1.70;99.90;;;;;;5005858;28;20045;-82
2023/03/08 07:34:34;;;;;;;29.65;20.20;;;-1.70;99.90;;;;;;4985828;28;20042;-82
2023/03/08 07:37:00;;;;;;;37.80;21.00;;;-1.30;99.90;;;;;;4994270;28;20125;-82
2023/03/08 07:39:26;;;;;;;36.15;20.05;;;-1.60;99.90;;;;;;4974991;28;20117;-82
2023/03/08 07:41:51;;;;;;;35.42;21.58;;;-1.40;99.90;;;;;;4978374;28;20072;-82
2023/03/08 07:44:17;;;;;;;33.22;20.70;;;-1.50;99.90;;;;;;4988592;28;20042;-82
2023/03/08 07:46:44;;;;;;;36.97;20.83;;;-1.50;99.90;;;;;;4977952;28;20522;-82
2023/03/08 07:49:10;;;;;;;34.65;21.67;;;-1.40;99.90;;;;;;5022366;28;20073;-82
2023/03/08 07:51:36;;;;;;;32.35;20.60;;;-1.30;99.90;;;;;;4994040;28;20041;-82
2023/03/08 07:54:02;;;;;;;36.15;21.73;;;-1.30;99.90;;;;;;4991273;28;20096;-82
2023/03/08 07:56:28;;;;;;;32.90;19.77;;;-1.20;99.90;;;;;;5009280;28;20040;-82
2023/03/08 07:58:57;;;;;;;42.90;23.35;;;-1.20;99.90;;;;;;4976323;28;20439;-82
2023/03/08 08:01:23;;;;;;;37.38;20.92;;;-1.10;99.90;;;;;;5010290;28;20038;-82
2023/03/08 08:03:49;;;;;;;36.08;22.17;;;-1.10;99.90;;;;;;4977362;28;20076;-81
2023/03/08 08:06:15;;;;;;;44.22;23.77;;;-1.10;99.90;;;;;;5010126;28;20044;-82
2023/03/08 08:08:41;;;;;;;43.85;21.88;;;-1.10;99.90;;;;;;4994070;28;20034;-82
2023/03/08 08:11:15;;;;;;;52.03;24.52;;;-1.10;99.90;;;;;;5011427;28;20124;-82
2023/03/08 08:13:40;;;;;;;49.88;25.08;;;-1.30;99.90;;;;;;5010557;28;20038;-82
2023/03/08 08:16:07;;;;;;;50.08;24.73;;;-1.30;99.90;;;;;;5010458;28;20030;-82
2023/03/08 08:18:33;;;;;;;44.38;23.70;;;-1.40;99.90;;;;;;4977450;28;20076;-82
2023/03/08 08:21:07;;;;;;;37.05;20.35;;;-0.70;99.90;;;;;;4985439;28;20609;-82
2023/03/08 08:23:34;;;;;;;42.42;23.13;;;-1.40;99.90;;;;;;5024876;28;20100;-82
2023/03/08 08:26:03;;;;;;;52.45;25.33;;;-1.50;99.90;;;;;;4997849;28;20041;-82
2023/03/08 08:28:28;;;;;;;55.75;26.17;;;-1.50;99.90;;;;;;4991591;28;20036;-82
2023/03/08 08:31:06;;;;;;;56.30;26.38;;;-1.40;99.90;;;;;;4985490;28;20132;-82
2023/03/08 08:33:32;;;;;;;44.55;23.95;;;-1.00;99.90;;;;;;5007957;28;20122;-82
2023/03/08 08:35:59;;;;;;;50.15;21.67;;;-0.50;99.90;;;;;;5009352;28;20040;-82
2023/03/08 08:38:25;;;;;;;63.92;27.27;;;-1.40;99.90;;;;;;4992863;28;20445;-82
2023/03/08 08:40:51;;;;;;;110.40;39.05;;;-1.40;99.90;;;;;;4980535;28;20053;-82
2023/03/08 08:43:17;;;;;;;128.00;46.97;;;-1.30;99.90;;;;;;4993195;28;20411;-82
2023/03/08 08:45:51;;;;;;;80.70;32.33;;;-1.20;99.90;;;;;;4992991;28;20034;-81
2023/03/08 08:48:17;;;;;;;58.40;26.38;;;-1.20;99.90;;;;;;4993685;28;20049;-82
2023/03/08 08:50:43;;;;;;;60.88;26.00;;;-1.20;99.90;;;;;;4976766;28;20037;-82
2023/03/08 08:53:09;;;;;;;61.38;27.40;;;-1.30;99.90;;;;;;4976462;28;20612;-82
2023/03/08 08:55:35;;;;;;;62.70;28.52;;;-1.20;99.90;;;;;;5009200;28;20033;-82
2023/03/08 08:58:02;;;;;;;67.32;26.98;;;-1.30;99.90;;;;;;4992852;28;20155;-82
2023/03/08 09:00:28;;;;;;;75.78;32.25;;;-1.20;99.90;;;;;;4993218;28;20033;-82
2023/03/08 09:02:54;;;;;;;64.43;28.92;;;-1.10;99.90;;;;;;4976720;28;20407;-82
2023/03/08 09:05:20;;;;;;;49.05;21.67;;;-0.90;99.90;;;;;;5008937;28;20045;-81
2023/03/08 09:07:46;;;;;;;49.47;23.30;;;-0.90;99.90;;;;;;4993764;28;20037;-82
2023/03/08 09:10:11;;;;;;;44.92;20.80;;;0.10;99.90;;;;;;4976957;28;20048;-82
2023/03/08 09:12:38;;;;;;;40.25;19.80;;;-0.70;99.90;;;;;;4976528;28;20403;-82
2023/03/08 09:15:05;;;;;;;52.25;21.40;;;-0.70;99.90;;;;;;5008578;28;20120;-82
2023/03/08 09:17:32;;;;;;;67.78;21.60;;;-0.60;99.90;;;;;;4977221;28;20033;-82
2023/03/08 09:19:58;;;;;;;42.08;18.55;;;-0.70;99.90;;;;;;4978825;28;20065;-82
2023/03/08 09:22:25;;;;;;;44.33;21.33;;;-0.70;99.90;;;;;;4993411;28;20049;-82
2023/03/08 09:24:51;;;;;;;51.97;19.83;;;-0.80;99.90;;;;;;4992028;28;20034;-82
2023/03/08 09:27:17;;;;;;;47.55;21.10;;;-0.70;99.90;;;;;;5017334;28;20124;-82
2023/03/08 09:29:43;;;;;;;45.65;19.38;;;-0.70;99.90;;;;;;4995286;28;20487;-82
2023/03/08 09:32:08;;;;;;;56.47;19.38;;;-0.60;99.90;;;;;;5008879;28;20072;-83
2023/03/08 09:34:34;;;;;;;47.75;19.20;;;-0.70;99.90;;;;;;4976965;28;20499;-80
2023/03/08 09:37:00;;;;;;;46.30;20.65;;;-0.60;99.90;;;;;;4988909;28;20034;-79
2023/03/08 09:39:26;;;;;;;48.28;20.33;;;-0.50;99.90;;;;;;4992469;28;20049;-80
2023/03/08 09:41:57;;;;;;;44.42;18.58;;;-0.40;99.90;;;;;;4990656;28;20060;-80
2023/03/08 09:44:50;;;;;;;40.90;16.65;;;-0.30;99.90;;;;;;4992649;28;20056;-80
2023/03/08 09:47:24;;;;;;;;;;;-0.20;99.90;;;;;;5007502;28;20038;-79
2023/03/08 09:50:00;;;;;;;39.13;17.65;;;-0.10;99.90;;;;;;4994896;28;20020;-79
2023/03/08 09:52:45;;;;;;;46.13;17.48;;;-0.10;99.90;;;;;;5008312;28;20061;-79
2023/03/08 09:55:29;;;;;;;43.72;17.30;;;-0.10;99.90;;;;;;4991890;28;20038;-79
2023/03/08 09:57:56;;;;;;;38.90;17.25;;;0.00;99.90;;;;;;4990610;28;20137;-79
2023/03/08 10:00:28;;;;;;;43.22;17.02;;;0.00;99.90;;;;;;4992316;28;20052;-79
2023/03/08 10:03:04;;;;;;;35.67;15.60;;;0.20;99.90;;;;;;5008439;28;20403;-80
2023/03/08 10:05:48;;;;;;;32.78;15.38;;;0.20;99.90;;;;;;4992196;28;20049;-80
2023/03/08 10:08:32;;;;;;;26.67;13.15;;;0.20;99.90;;;;;;4991378;28;20038;-81
2023/03/08 10:10:59;;;;;;;29.27;15.02;;;0.20;99.90;;;;;;4991396;28;20046;-79
2023/03/08 10:13:50;;;;;;;32.28;14.95;;;0.30;99.90;;;;;;4992235;28;20064;-79
2023/03/08 10:16:28;;;;;;;32.70;13.48;;;0.30;99.90;;;;;;4992094;28;20026;-79
2023/03/08 10:19:16;;;;;;;27.77;13.57;;;0.10;99.90;;;;;;4992386;28;20038;-79
2023/03/08 10:21:43;;;;;;;30.05;13.63;;;0.10;99.90;;;;;;4995462;28;20084;-80
2023/03/08 10:24:26;;;;;;;39.38;14.77;;;0.20;99.90;;;;;;5011885;28;20129;-80
2023/03/08 10:27:15;;;;;;;;;;;0.10;99.90;;;;;;4995445;28;20042;-80
2023/03/08 10:29:50;;;;;;;31.70;15.02;;;0.00;99.90;;;;;;4999544;28;19917;-80
2023/03/08 10:32:16;;;;;;;35.75;16.25;;;0.20;99.90;;;;;;4994807;28;20125;-79
2023/03/08 10:34:42;;;;;;;32.78;14.93;;;0.30;99.90;;;;;;4979068;28;20117;-80
2023/03/08 10:37:08;;;;;;;32.78;14.98;;;0.30;99.90;;;;;;4995227;28;20483;-80
2023/03/08 10:39:36;;;;;;;31.00;14.60;;;0.40;99.90;;;;;;5011666;28;20044;-80
2023/03/08 10:42:13;;;;;;;30.27;14.00;;;0.50;99.90;;;;;;4994951;28;20076;-80
2023/03/08 10:44:55;;;;;;;26.83;13.13;;;0.60;99.90;;;;;;4992754;28;20122;-80
2023/03/08 10:47:33;;;;;;;41.00;15.52;;;0.70;99.90;;;;;;4994181;28;20038;-79
2023/03/08 10:50:21;;;;;;;26.40;13.02;;;0.70;99.90;;;;;;5011407;28;20048;-80
2023/03/08 10:52:49;;;;;;;28.20;13.02;;;0.70;99.90;;;;;;5010867;28;20042;-80
2023/03/08 10:55:20;;;;;;;31.17;14.73;;;0.70;99.90;;;;;;5000762;28;20066;-80
2023/03/08 10:57:49;;;;;;;29.55;15.43;;;0.80;99.90;;;;;;5011073;28;20148;-80
2023/03/08 11:00:24;;;;;;;31.75;15.30;;;0.80;99.90;;;;;;4994953;28;20038;-80
2023/03/08 11:03:00;;;;;;;32.88;15.43;;;0.80;99.90;;;;;;4995164;28;20454;-80
2023/03/08 11:05:26;;;;;;;31.17;14.38;;;0.90;99.90;;;;;;4980383;28;20403;-80
2023/03/08 11:07:54;;;;;;;29.33;14.18;;;1.00;99.90;;;;;;5007584;28;20052;-80
2023/03/08 11:10:23;;;;;;;27.77;14.23;;;1.20;99.90;;;;;;5021476;28;20048;-81
2023/03/08 11:13:11;;;;;;;28.73;13.57;;;1.20;99.90;;;;;;5012370;28;20541;-81
2023/03/08 11:15:39;;;;;;;24.80;12.63;;;1.20;99.90;;;;;;5009739;28;20088;-80
2023/03/08 11:18:36;;;;;;;31.05;14.05;;;1.20;99.90;;;;;;4994744;28;20042;-80
2023/03/08 11:21:30;;;;;;;22.85;13.00;;;1.30;99.90;;;;;;5011378;28;20033;-80
2023/03/08 11:24:22;;;;;;;26.77;14.07;;;1.30;99.90;;;;;;4993834;28;20085;-80
2023/03/08 11:27:21;;;;;;;33.45;14.88;;;1.20;99.90;;;;;;4992801;28;20033;-82
2023/03/08 11:30:00;;;;;;;36.03;16.05;;;1.10;99.90;;;;;;5011800;28;20038;-82
2023/03/08 11:32:47;;;;;;;35.90;17.70;;;1.20;99.90;;;;;;5008845;28;20153;-81
2023/03/08 11:35:28;;;;;;;40.55;18.15;;;1.20;99.90;;;;;;5009690;28;20061;-83
2023/03/08 11:38:30;;;;;;;48.97;19.77;;;1.30;99.90;;;;;;5022226;28;20038;-84
2023/03/08 11:41:20;;;;;;;36.58;15.93;;;1.40;99.90;;;;;;4991739;28;20026;-83
2023/03/08 11:44:09;;;;;;;36.88;15.30;;;1.50;99.90;;;;;;4993454;28;20037;-81
2023/03/08 11:47:02;;;;;;;31.08;14.70;;;1.50;99.90;;;;;;5009693;28;20045;-81
2023/03/08 11:49:49;;;;;;;27.35;13.30;;;1.50;99.90;;;;;;4993225;28;20057;-80
2023/03/08 11:52:36;;;;;;;33.10;15.40;;;1.60;99.90;;;;;;4993702;28;20034;-81
2023/03/08 11:55:39;;;;;;;37.67;16.25;;;1.60;99.90;;;;;;4993690;28;20449;-81
2023/03/08 11:58:27;;;;;;;54.20;20.08;;;1.80;99.90;;;;;;5025775;28;20550;-83
2023/03/08 12:00:59;;;;;;;52.83;20.52;;;1.80;99.90;;;;;;4994461;28;20048;-80
2023/03/08 12:03:46;;;;;;;50.33;21.65;;;1.90;99.90;;;;;;5018158;28;20604;-79
2023/03/08 12:06:36;;;;;;;50.13;21.70;;;1.90;99.90;;;;;;4993507;28;20034;-85
2023/03/08 12:09:30;;;;;;;52.00;22.63;;;2.00;99.90;;;;;;5008885;28;20034;-84
2023/03/08 12:12:15;;;;;;;51.78;19.83;;;2.00;99.90;;;;;;5010173;28;20112;-82
2023/03/08 12:14:53;;;;;;;50.42;20.40;;;2.00;99.90;;;;;;4984604;28;20041;-84
2023/03/08 12:17:28;;;;;;;55.60;20.42;;;2.10;99.90;;;;;;4990748;28;20050;-80
2023/03/08 12:19:54;;;;;;;44.00;17.98;;;2.10;99.90;;;;;;4992834;28;20148;-82
2023/03/08 12:22:40;;;;;;;40.63;17.40;;;2.10;99.90;;;;;;4977803;28;20045;-80
2023/03/08 12:25:29;;;;;;;34.75;15.38;;;2.20;99.90;;;;;;4990878;28;20056;-88
2023/03/08 12:28:01;;;;;;;36.60;17.95;;;2.30;99.90;;;;;;4990009;28;20132;-76
2023/03/08 12:31:04;;;;;;;37.77;17.70;;;2.40;99.90;;;;;;5005443;28;20061;-85
2023/03/08 12:33:31;;;;;;;37.05;16.30;;;2.50;99.90;;;;;;4977036;28;21036;-91
2023/03/08 12:36:01;;;;;;;34.03;15.70;;;2.50;99.90;;;;;;4973582;28;20120;-86
2023/03/08 12:38:36;;;;;;;32.92;15.45;;;2.60;99.90;;;;;;4973800;28;20395;-87
2023/03/08 12:41:05;;;;;;;32.13;14.73;;;2.70;99.90;;;;;;4971835;28;20049;-88
2023/03/08 12:43:34;;;;;;;33.17;14.35;;;2.70;99.90;;;;;;4960206;28;20395;-88
2023/03/08 12:45:59;;;;;;;35.90;16.00;;;2.80;99.90;;;;;;5002747;28;20129;-92